createdAt,value
2019-02-23T00:01:13.305Z,4.40
2019-02-23T00:04:21.798Z,4.40
2019-02-23T00:07:30.657Z,4.40
2019-02-23T00:10:40.203Z,4.40
2019-02-23T00:13:48.781Z,4.40
2019-02-23T00:16:57.406Z,4.30
2019-02-23T00:20:07.841Z,4.10
2019-02-23T00:23:16.300Z,4.10
2019-02-23T00:26:24.769Z,4.10
2019-02-23T00:29:33.262Z,4.10
2019-02-23T00:32:52.066Z,4.00
2019-02-23T00:36:00.748Z,4.00
2019-02-23T00:39:09.415Z,4.00
2019-02-23T00:42:17.980Z,3.90
2019-02-23T00:45:26.573Z,3.90
2019-02-23T00:48:35.156Z,3.90
2019-02-23T00:51:43.747Z,3.80
2019-02-23T00:55:02.653Z,3.70
2019-02-23T00:58:12.750Z,3.70
2019-02-23T01:01:21.239Z,3.80
2019-02-23T01:04:30.059Z,3.70
2019-02-23T01:07:38.766Z,3.60
2019-02-23T01:10:57.463Z,3.50
2019-02-23T01:13:57.631Z,3.50
2019-02-23T01:17:16.420Z,3.60
2019-02-23T01:20:25.027Z,3.60
2019-02-23T01:23:33.591Z,3.60
2019-02-23T01:26:42.195Z,3.50
2019-02-23T01:29:50.777Z,3.40
2019-02-23T01:32:59.265Z,3.50
2019-02-23T01:36:18.245Z,3.40
2019-02-23T01:39:26.832Z,3.30
2019-02-23T01:42:35.530Z,3.30
2019-02-23T01:45:44.102Z,3.30
2019-02-23T01:48:52.700Z,3.20
2019-02-23T01:52:01.280Z,3.20
2019-02-23T01:55:10.764Z,3.20
2019-02-23T01:58:19.271Z,3.10
2019-02-23T02:01:28.076Z,3.10
2019-02-23T02:04:36.713Z,3.20
2019-02-23T02:07:45.291Z,3.00
2019-02-23T02:11:03.978Z,3.00
2019-02-23T02:14:12.581Z,2.90
2019-02-23T02:17:21.122Z,2.90
2019-02-23T02:20:29.756Z,3.10
2019-02-23T02:23:39.700Z,3.10
2019-02-23T02:26:58.485Z,3.00
2019-02-23T02:30:10.912Z,3.00
2019-02-23T02:33:19.473Z,3.00
2019-02-23T02:36:29.037Z,2.80
2019-02-23T02:39:37.634Z,2.80
2019-02-23T02:42:46.395Z,2.80
2019-02-23T02:45:54.972Z,2.90
2019-02-23T02:49:13.874Z,3.00
2019-02-23T02:52:22.442Z,3.00
2019-02-23T02:55:31.020Z,3.00
2019-02-23T02:58:40.735Z,3.00
2019-02-23T03:01:59.590Z,3.00
2019-02-23T03:05:08.227Z,3.00
2019-02-23T03:08:16.486Z,3.00
2019-02-23T03:11:25.048Z,2.90
2019-02-23T03:14:43.798Z,3.00
2019-02-23T03:18:03.132Z,3.00
2019-02-23T03:21:11.725Z,3.00
2019-02-23T03:24:20.318Z,2.90
2019-02-23T03:27:40.066Z,3.00
2019-02-23T03:30:48.657Z,3.00
2019-02-23T03:33:57.234Z,3.00
2019-02-23T03:37:05.807Z,2.90
2019-02-23T03:40:14.292Z,2.90
2019-02-23T03:43:33.038Z,2.90
2019-02-23T03:46:41.633Z,3.00
2019-02-23T03:49:50.218Z,2.90
2019-02-23T03:52:58.792Z,2.80
2019-02-23T03:56:07.376Z,2.90
2019-02-23T03:59:16.083Z,2.70
2019-02-23T04:02:34.783Z,2.80
2019-02-23T04:05:43.370Z,2.80
2019-02-23T04:08:52.032Z,2.80
2019-02-23T04:12:00.610Z,2.90
2019-02-23T04:15:09.405Z,2.90
2019-02-23T04:18:18.079Z,2.90
2019-02-23T04:21:26.667Z,2.90
2019-02-23T04:24:35.222Z,2.80
2019-02-23T04:27:54.153Z,2.80
2019-02-23T04:31:22.012Z,2.80
2019-02-23T04:34:30.573Z,2.80
2019-02-23T04:37:39.055Z,2.80
2019-02-23T04:40:47.676Z,2.70
2019-02-23T04:43:56.317Z,2.70
2019-02-23T04:47:15.119Z,2.70
2019-02-23T04:50:23.728Z,2.60
2019-02-23T04:53:32.308Z,2.70
2019-02-23T04:56:41.190Z,2.70
2019-02-23T04:59:49.667Z,2.80
2019-02-23T05:02:58.274Z,2.70
2019-02-23T05:06:07.043Z,2.50
2019-02-23T05:09:15.149Z,2.70
2019-02-23T05:12:23.932Z,2.80
2019-02-23T05:15:32.483Z,2.70
2019-02-23T05:18:41.137Z,2.70
2019-02-23T05:21:49.741Z,2.60
2019-02-23T05:25:00.573Z,2.50
2019-02-23T05:28:09.187Z,2.50
2019-02-23T05:31:17.774Z,2.40
2019-02-23T05:34:26.242Z,2.50
2019-02-23T05:37:34.837Z,2.40
2019-02-23T05:40:53.792Z,2.30
2019-02-23T05:44:21.688Z,2.20
2019-02-23T05:47:30.283Z,2.30
2019-02-23T05:50:38.761Z,2.40
2019-02-23T05:53:47.537Z,2.30
2019-02-23T05:56:56.168Z,2.30
2019-02-23T06:00:06.039Z,2.40
2019-02-23T06:03:14.529Z,2.40
2019-02-23T06:06:23.110Z,2.40
2019-02-23T06:09:31.721Z,2.20
2019-02-23T06:12:40.419Z,2.30
2019-02-23T06:15:49.081Z,2.30
2019-02-23T06:18:57.686Z,2.30
2019-02-23T06:22:06.305Z,2.30
2019-02-23T06:25:25.011Z,2.30
2019-02-23T06:28:33.684Z,2.30
2019-02-23T06:31:42.254Z,2.20
2019-02-23T06:34:50.849Z,2.20
2019-02-23T06:37:59.452Z,2.20
2019-02-23T06:41:08.127Z,2.30
2019-02-23T06:44:16.746Z,2.20
2019-02-23T06:47:35.582Z,2.20
2019-02-23T06:50:44.161Z,2.30
2019-02-23T06:53:52.756Z,2.30
2019-02-23T06:57:01.608Z,2.40
2019-02-23T07:00:14.007Z,2.40
2019-02-23T07:03:22.501Z,2.30
2019-02-23T07:06:31.107Z,2.10
2019-02-23T07:09:39.335Z,2.20
2019-02-23T07:12:58.475Z,2.20
2019-02-23T07:16:07.110Z,2.30
2019-02-23T07:19:15.619Z,2.20
2019-02-23T07:22:24.195Z,2.30
2019-02-23T07:25:31.382Z,2.30
2019-02-23T07:28:39.879Z,2.40
2019-02-23T07:31:48.456Z,2.50
2019-02-23T07:34:57.049Z,2.60
2019-02-23T07:38:16.279Z,2.70
2019-02-23T07:41:35.244Z,2.80
2019-02-23T07:44:43.772Z,2.80
2019-02-23T07:47:52.352Z,2.80
2019-02-23T07:51:00.955Z,3.00
2019-02-23T07:54:09.454Z,3.10
2019-02-23T07:57:31.263Z,3.10
2019-02-23T08:00:40.864Z,3.20
2019-02-23T08:03:49.357Z,3.30
2019-02-23T08:07:08.218Z,3.30
2019-02-23T08:10:16.817Z,3.20
2019-02-23T08:13:25.393Z,3.30
2019-02-23T08:16:33.889Z,3.40
2019-02-23T08:19:42.497Z,3.50
2019-02-23T08:22:51.094Z,3.70
2019-02-23T08:26:10.193Z,3.70
2019-02-23T08:29:18.803Z,3.90
2019-02-23T08:32:27.384Z,4.10
2019-02-23T08:35:35.882Z,4.00
2019-02-23T08:38:44.459Z,4.10
2019-02-23T08:41:53.073Z,4.10
2019-02-23T08:45:01.661Z,4.40
2019-02-23T08:48:20.539Z,4.40
2019-02-23T08:51:29.221Z,4.60
2019-02-23T08:54:37.929Z,4.60
2019-02-23T08:57:46.643Z,4.50
2019-02-23T09:00:55.250Z,4.60
2019-02-23T09:04:03.816Z,4.60
2019-02-23T09:07:12.994Z,4.40
2019-02-23T09:10:21.722Z,4.40
2019-02-23T09:13:30.369Z,4.40
2019-02-23T09:16:39.032Z,4.60
2019-02-23T09:19:47.765Z,4.80
2019-02-23T09:23:00.199Z,4.70
2019-02-23T09:26:06.650Z,4.90
2019-02-23T09:29:25.520Z,4.80
2019-02-23T09:32:35.118Z,4.80
2019-02-23T09:35:43.639Z,5.00
2019-02-23T09:39:02.483Z,5.20
2019-02-23T09:42:11.081Z,5.30
2019-02-23T09:45:19.676Z,5.50
2019-02-23T09:48:28.261Z,5.70
2019-02-23T09:51:36.857Z,5.90
2019-02-23T09:54:45.440Z,5.90
2019-02-23T09:58:04.284Z,6.10
2019-02-23T10:01:12.877Z,6.40
2019-02-23T10:04:59.673Z,6.50
2019-02-23T10:08:08.192Z,6.80
2019-02-23T10:11:16.715Z,6.90
2019-02-23T10:14:35.579Z,7.00
2019-02-23T10:17:44.068Z,7.20
2019-02-23T10:20:52.685Z,7.30
2019-02-23T10:24:01.308Z,7.20
2019-02-23T10:27:09.908Z,7.20
2019-02-23T10:30:19.743Z,7.10
2019-02-23T10:33:29.908Z,7.30
2019-02-23T10:36:38.412Z,7.30
2019-02-23T10:39:47.021Z,7.30
2019-02-23T10:42:55.509Z,7.50
2019-02-23T10:46:04.117Z,7.50
2019-02-23T10:49:22.953Z,7.60
2019-02-23T10:52:31.553Z,7.80
2019-02-23T10:55:40.033Z,8.10
2019-02-23T10:58:48.683Z,8.00
2019-02-23T11:01:57.184Z,8.10
2019-02-23T11:05:16.344Z,8.60
2019-02-23T11:08:35.301Z,8.90
2019-02-23T11:11:43.889Z,9.40
2019-02-23T11:14:52.458Z,9.70
2019-02-23T11:18:02.882Z,9.40
2019-02-23T11:21:11.569Z,9.80
2019-02-23T11:24:20.111Z,10.00
2019-02-23T11:27:28.610Z,10.30
2019-02-23T11:30:47.722Z,10.90
2019-02-23T11:33:56.343Z,11.40
2019-02-23T11:37:05.011Z,11.40
2019-02-23T11:40:13.730Z,11.60
2019-02-23T11:43:22.637Z,11.90
2019-02-23T11:46:59.170Z,12.00
2019-02-23T11:49:52.336Z,11.40
2019-02-23T11:53:00.840Z,11.30
2019-02-23T11:56:09.481Z,11.40
2019-02-23T11:59:18.015Z,11.40
2019-02-23T12:02:26.666Z,10.90
2019-02-23T12:05:35.253Z,10.30
2019-02-23T12:08:54.255Z,10.50
2019-02-23T12:12:02.838Z,10.60
2019-02-23T12:15:11.848Z,10.60
2019-02-23T12:18:20.453Z,10.50
2019-02-23T12:21:29.041Z,10.40
2019-02-23T12:24:37.649Z,9.90
2019-02-23T12:27:46.218Z,10.00
2019-02-23T12:30:54.889Z,9.80
2019-02-23T12:34:03.378Z,9.80
2019-02-23T12:37:22.302Z,9.70
2019-02-23T12:40:30.932Z,9.50
2019-02-23T12:43:39.541Z,9.70
2019-02-23T12:46:48.172Z,9.90
2019-02-23T12:49:56.839Z,10.00
2019-02-23T12:53:05.409Z,9.90
2019-02-23T12:56:13.996Z,10.00
2019-02-23T12:59:32.974Z,10.20
2019-02-23T13:02:41.475Z,10.30
2019-02-23T13:05:49.993Z,10.60
2019-02-23T13:09:35.669Z,10.70
2019-02-23T13:13:18.211Z,10.90
2019-02-23T13:16:49.058Z,10.70
2019-02-23T13:20:34.413Z,10.50
2019-02-23T13:24:52.183Z,10.60
2019-02-23T13:28:50.282Z,11.00
2019-02-23T13:32:52.119Z,11.00
2019-02-23T13:36:41.678Z,10.80
2019-02-23T13:40:46.997Z,10.90
2019-02-23T13:44:41.096Z,10.90
2019-02-23T13:49:08.609Z,10.90
2019-02-23T13:53:22.903Z,11.10
2019-02-23T13:57:09.378Z,10.90
2019-02-23T14:01:22.302Z,11.20
2019-02-23T14:05:15.551Z,11.20
2019-02-23T14:09:17.454Z,11.50
2019-02-23T14:12:46.963Z,11.70
2019-02-23T14:16:26.917Z,11.60
2019-02-23T14:20:05.102Z,11.50
2019-02-23T14:24:03.972Z,11.20
2019-02-23T14:28:14.152Z,10.60
2019-02-23T14:32:43.952Z,10.50
2019-02-23T14:36:56.934Z,10.50
2019-02-23T14:41:27.349Z,10.50
2019-02-23T14:44:56.191Z,10.30
2019-02-23T14:49:16.386Z,10.30
2019-02-23T14:53:03.690Z,10.30
2019-02-23T14:57:22.979Z,10.20
2019-02-23T15:01:54.824Z,9.90
2019-02-23T15:05:40.199Z,9.90
2019-02-23T15:09:38.808Z,10.00
2019-02-23T15:13:36.295Z,9.80
2019-02-23T15:18:12.714Z,9.50
2019-02-23T15:22:16.963Z,9.50
2019-02-23T15:26:38.696Z,9.60
2019-02-23T15:30:20.013Z,9.70
2019-02-23T15:34:40.438Z,9.60
2019-02-23T15:38:35.749Z,9.40
2019-02-23T15:42:42.997Z,9.50
2019-02-23T15:46:41.544Z,9.50
2019-02-23T15:50:12.261Z,9.50
2019-02-23T15:53:10.812Z,9.40
2019-02-23T15:56:19.386Z,9.40
2019-02-23T15:59:28.028Z,9.40
2019-02-23T16:02:36.545Z,9.20
2019-02-23T16:05:45.089Z,9.10
2019-02-23T16:09:04.023Z,9.20
2019-02-23T16:12:12.486Z,9.20
2019-02-23T16:15:20.969Z,9.20
2019-02-23T16:18:29.523Z,9.30
2019-02-23T16:21:38.140Z,9.20
2019-02-23T16:24:46.641Z,8.90
2019-02-23T16:28:05.810Z,8.90
2019-02-23T16:31:14.413Z,8.90
2019-02-23T16:34:23.053Z,9.00
2019-02-23T16:37:31.568Z,9.00
2019-02-23T16:40:40.188Z,8.90
2019-02-23T16:43:48.857Z,8.70
2019-02-23T16:46:57.323Z,8.80
2019-02-23T16:50:16.193Z,8.70
2019-02-23T16:53:24.663Z,8.70
2019-02-23T16:56:33.208Z,8.50
2019-02-23T16:59:41.831Z,8.50
2019-02-23T17:02:50.434Z,8.50
2019-02-23T17:06:00.138Z,8.50
2019-02-23T17:09:10.512Z,8.50
2019-02-23T17:12:19.225Z,8.50
2019-02-23T17:15:27.812Z,8.40
2019-02-23T17:18:36.402Z,8.40
2019-02-23T17:21:45.075Z,8.40
2019-02-23T17:24:53.591Z,8.40
2019-02-23T17:28:12.330Z,8.30
2019-02-23T17:31:20.941Z,8.40
2019-02-23T17:34:29.556Z,8.30
2019-02-23T17:37:38.148Z,8.20
2019-02-23T17:40:46.817Z,8.20
2019-02-23T17:43:56.745Z,8.20
2019-02-23T17:47:05.758Z,8.20
2019-02-23T17:50:24.593Z,8.00
2019-02-23T17:53:33.084Z,8.00
2019-02-23T17:56:41.688Z,7.90
2019-02-23T17:59:50.599Z,8.00
2019-02-23T18:02:59.205Z,7.90
2019-02-23T18:06:07.789Z,7.80
2019-02-23T18:09:16.499Z,7.70
2019-02-23T18:12:25.140Z,7.70
2019-02-23T18:15:33.749Z,7.60
2019-02-23T18:18:52.670Z,7.70
2019-02-23T18:22:01.262Z,7.60
2019-02-23T18:25:10.137Z,7.60
2019-02-23T18:28:18.662Z,7.50
2019-02-23T18:31:27.249Z,7.50
2019-02-23T18:34:35.762Z,7.40
2019-02-23T18:37:54.445Z,7.40
2019-02-23T18:41:03.165Z,7.40
2019-02-23T18:44:11.811Z,7.30
2019-02-23T18:47:20.384Z,7.20
2019-02-23T18:50:28.942Z,7.10
2019-02-23T18:53:37.557Z,7.00
2019-02-23T18:56:46.135Z,6.90
2019-02-23T19:00:06.116Z,6.80
2019-02-23T19:03:14.656Z,6.80
2019-02-23T19:06:23.237Z,6.70
2019-02-23T19:09:31.974Z,6.70
2019-02-23T19:12:50.686Z,6.70
2019-02-23T19:15:59.200Z,6.70
2019-02-23T19:19:07.800Z,6.70
2019-02-23T19:22:16.425Z,6.70
2019-02-23T19:25:25.110Z,6.80
2019-02-23T19:28:33.778Z,6.80
2019-02-23T19:31:42.342Z,6.70
2019-02-23T19:35:01.341Z,6.60
2019-02-23T19:38:09.925Z,6.60
2019-02-23T19:41:19.615Z,6.60
2019-02-23T19:44:28.213Z,6.70
2019-02-23T19:47:47.044Z,6.70
2019-02-23T19:51:03.616Z,6.60
2019-02-23T19:54:13.739Z,6.40
2019-02-23T19:57:22.488Z,6.40
2019-02-23T20:00:31.188Z,6.30
2019-02-23T20:03:39.822Z,6.30
2019-02-23T20:06:48.417Z,6.30
2019-02-23T20:10:08.438Z,6.20
2019-02-23T20:13:17.130Z,6.20
2019-02-23T20:16:25.661Z,6.20
2019-02-23T20:19:34.572Z,6.10
2019-02-23T20:22:43.078Z,6.10
2019-02-23T20:25:51.748Z,6.20
2019-02-23T20:29:10.702Z,6.10
2019-02-23T20:32:17.714Z,6.20
2019-02-23T20:35:26.346Z,6.20
2019-02-23T20:38:35.141Z,6.10
2019-02-23T20:41:43.734Z,6.10
2019-02-23T20:44:52.237Z,6.10
2019-02-23T20:48:01.833Z,5.90
2019-02-23T20:51:10.440Z,6.00
2019-02-23T20:54:18.913Z,5.90
2019-02-23T20:57:27.507Z,5.90
2019-02-23T21:00:36.215Z,5.90
2019-02-23T21:03:46.414Z,5.90
2019-02-23T21:07:06.336Z,5.70
2019-02-23T21:10:16.173Z,5.70
2019-02-23T21:13:24.753Z,5.70
2019-02-23T21:16:45.760Z,5.70
2019-02-23T21:19:54.334Z,5.70
2019-02-23T21:23:02.927Z,5.80
2019-02-23T21:26:11.620Z,5.70
2019-02-23T21:29:20.362Z,5.80
2019-02-23T21:32:28.949Z,5.60
2019-02-23T21:35:37.458Z,5.80
2019-02-23T21:38:56.715Z,5.70
2019-02-23T21:42:15.617Z,5.70
2019-02-23T21:45:24.203Z,5.80
2019-02-23T21:48:32.852Z,5.70
2019-02-23T21:51:41.431Z,5.80
2019-02-23T21:54:50.252Z,5.60
2019-02-23T21:58:00.000Z,5.60
2019-02-23T22:01:18.976Z,5.60
2019-02-23T22:04:27.468Z,5.50
2019-02-23T22:07:39.250Z,5.40
2019-02-23T22:10:47.940Z,5.50
2019-02-23T22:13:56.470Z,5.50
2019-02-23T22:17:15.145Z,5.50
2019-02-23T22:20:23.646Z,5.40
2019-02-23T22:23:32.255Z,5.30
2019-02-23T22:26:40.828Z,5.30
2019-02-23T22:29:49.554Z,5.40
2019-02-23T22:32:58.153Z,5.40
2019-02-23T22:36:16.886Z,5.30
2019-02-23T22:39:25.545Z,5.20
2019-02-23T22:42:34.027Z,5.20
2019-02-23T22:45:42.628Z,5.20
2019-02-23T22:48:51.283Z,5.20
2019-02-23T22:51:59.849Z,5.20
2019-02-23T22:55:18.706Z,5.10
2019-02-23T22:58:27.790Z,5.10
2019-02-23T23:01:47.181Z,5.00
2019-02-23T23:04:55.680Z,5.10
2019-02-23T23:08:04.278Z,4.90
2019-02-23T23:11:12.911Z,4.90
2019-02-23T23:14:21.486Z,4.90
2019-02-23T23:17:29.994Z,4.80
2019-02-23T23:20:38.707Z,4.70
2019-02-23T23:23:47.282Z,4.70
2019-02-23T23:27:06.266Z,4.80
2019-02-23T23:30:15.146Z,4.60
2019-02-23T23:33:23.722Z,4.70
2019-02-23T23:36:32.331Z,4.70
2019-02-23T23:39:41.194Z,4.70
2019-02-23T23:42:57.827Z,4.60
2019-02-23T23:46:05.463Z,4.60
2019-02-23T23:49:14.012Z,4.60
2019-02-23T23:52:22.690Z,4.50
2019-02-23T23:55:31.332Z,4.40
2019-02-23T23:58:40.005Z,4.40
